createdAt,value
2019-04-06T00:01:13.993Z,100.00
2019-04-06T00:03:43.325Z,100.00
2019-04-06T00:06:12.660Z,100.00
2019-04-06T00:08:42.021Z,100.00
2019-04-06T00:11:13.057Z,100.00
2019-04-06T00:13:42.412Z,100.00
2019-04-06T00:16:11.685Z,100.00
2019-04-06T00:18:41.019Z,100.00
2019-04-06T00:21:10.376Z,100.00
2019-04-06T00:23:39.707Z,100.00
2019-04-06T00:26:09.058Z,100.00
2019-04-06T00:28:38.411Z,100.00
2019-04-06T00:31:09.386Z,100.00
2019-04-06T00:33:38.731Z,100.00
2019-04-06T00:36:08.001Z,100.00
2019-04-06T00:38:37.418Z,100.00
2019-04-06T00:41:06.763Z,100.00
2019-04-06T00:43:36.119Z,100.00
2019-04-06T00:46:05.444Z,100.00
2019-04-06T00:48:34.793Z,100.00
2019-04-06T00:51:04.137Z,100.00
2019-04-06T00:53:33.481Z,100.00
2019-04-06T00:56:02.848Z,100.00
2019-04-06T00:58:32.173Z,100.00
2019-04-06T01:01:14.050Z,100.00
2019-04-06T01:03:43.395Z,100.00
2019-04-06T01:06:12.813Z,100.00
2019-04-06T01:08:42.155Z,100.00
2019-04-06T01:11:11.496Z,100.00
2019-04-06T01:13:40.835Z,100.00
2019-04-06T01:16:10.191Z,100.00
2019-04-06T01:18:39.531Z,100.00
2019-04-06T01:21:08.871Z,100.00
2019-04-06T01:23:38.223Z,100.00
2019-04-06T01:26:07.907Z,100.00
2019-04-06T01:28:57.711Z,100.00
2019-04-06T01:31:27.061Z,100.00
2019-04-06T01:33:59.147Z,100.00
2019-04-06T01:36:34.836Z,100.00
2019-04-06T01:39:44.330Z,100.00
2019-04-06T01:42:13.669Z,100.00
2019-04-06T01:44:42.999Z,100.00
2019-04-06T01:47:12.352Z,100.00
2019-04-06T01:49:41.696Z,100.00
2019-04-06T01:52:11.040Z,100.00
2019-04-06T01:54:40.379Z,100.00
2019-04-06T01:57:09.716Z,100.00
2019-04-06T01:59:39.059Z,100.00
2019-04-06T02:04:49.169Z,100.00
2019-04-06T02:07:18.475Z,100.00
2019-04-06T02:09:47.817Z,100.00
2019-04-06T02:12:17.176Z,100.00
2019-04-06T02:14:46.779Z,100.00
2019-04-06T02:17:16.261Z,100.00
2019-04-06T02:19:45.555Z,100.00
2019-04-06T02:22:14.891Z,100.00
2019-04-06T02:24:44.343Z,100.00
2019-04-06T02:27:13.666Z,100.00
2019-04-06T02:29:43.010Z,100.00
2019-04-06T02:32:31.481Z,100.00
2019-04-06T02:35:19.939Z,100.00
2019-04-06T02:40:47.889Z,100.00
2019-04-06T02:43:36.397Z,100.00
2019-04-06T02:46:06.057Z,100.00
2019-04-06T02:48:35.392Z,100.00
2019-04-06T02:51:04.812Z,100.00
2019-04-06T02:53:34.263Z,100.00
2019-04-06T02:56:03.827Z,100.00
2019-04-06T02:58:44.349Z,100.00
2019-04-06T03:01:13.690Z,100.00
2019-04-06T03:03:43.078Z,100.00
2019-04-06T03:06:12.497Z,100.00
2019-04-06T03:08:41.798Z,100.00
2019-04-06T03:11:11.431Z,100.00
2019-04-06T03:13:41.043Z,100.00
2019-04-06T03:16:17.067Z,100.00
2019-04-06T03:18:52.336Z,100.00
2019-04-06T03:21:21.677Z,100.00
2019-04-06T03:23:52.427Z,100.00
2019-04-06T03:26:27.552Z,100.00
2019-04-06T03:31:58.410Z,100.00
2019-04-06T03:34:40.574Z,100.00
2019-04-06T03:37:10.129Z,100.00
2019-04-06T03:39:39.784Z,100.00
2019-04-06T03:42:11.459Z,100.00
2019-04-06T03:44:46.993Z,100.00
2019-04-06T03:47:16.345Z,100.00
2019-04-06T03:49:45.679Z,100.00
2019-04-06T03:52:15.090Z,100.00
2019-04-06T03:55:14.548Z,100.00
2019-04-06T03:57:43.939Z,100.00
2019-04-06T04:00:13.225Z,100.00
2019-04-06T04:02:42.608Z,100.00
2019-04-06T04:08:13.443Z,100.00
2019-04-06T04:10:43.296Z,100.00
2019-04-06T04:13:19.490Z,100.00
2019-04-06T04:15:56.771Z,100.00
2019-04-06T04:18:35.177Z,100.00
2019-04-06T04:21:10.485Z,100.00
2019-04-06T04:23:39.832Z,100.00
2019-04-06T04:26:09.169Z,100.00
2019-04-06T04:28:38.514Z,100.00
2019-04-06T04:31:27.375Z,100.00
2019-04-06T04:33:56.679Z,100.00
2019-04-06T04:36:25.990Z,100.00
2019-04-06T04:38:55.338Z,100.00
2019-04-06T04:41:24.667Z,100.00
2019-04-06T04:44:05.979Z,100.00
2019-04-06T04:46:35.334Z,100.00
2019-04-06T04:49:04.939Z,100.00
2019-04-06T04:51:41.048Z,100.00
2019-04-06T04:54:10.384Z,100.00
2019-04-06T04:56:39.733Z,100.00
2019-04-06T04:59:09.069Z,100.00
2019-04-06T05:01:38.438Z,100.00
2019-04-06T05:04:27.098Z,100.00
2019-04-06T05:06:56.479Z,100.00
2019-04-06T05:09:25.867Z,100.00
2019-04-06T05:11:55.216Z,100.00
2019-04-06T05:15:03.956Z,100.00
2019-04-06T05:17:33.309Z,100.00
2019-04-06T05:20:02.905Z,100.00
2019-04-06T05:22:37.758Z,100.00
2019-04-06T05:28:40.994Z,100.00
2019-04-06T05:31:10.404Z,100.00
2019-04-06T05:33:39.749Z,100.00
2019-04-06T05:36:09.100Z,100.00
2019-04-06T05:38:38.660Z,100.00
2019-04-06T05:41:15.155Z,100.00
2019-04-06T05:44:03.835Z,100.00
2019-04-06T05:46:46.089Z,100.00
2019-04-06T05:49:15.437Z,100.00
2019-04-06T05:51:44.825Z,100.00
2019-04-06T05:54:14.372Z,100.00
2019-04-06T05:56:43.738Z,100.00
2019-04-06T05:59:13.085Z,100.00
2019-04-06T06:01:42.632Z,100.00
2019-04-06T06:04:32.679Z,100.00
2019-04-06T06:07:02.001Z,100.00
2019-04-06T06:09:31.272Z,100.00
2019-04-06T06:12:00.617Z,100.00
2019-04-06T06:14:29.973Z,100.00
2019-04-06T06:16:59.332Z,100.00
2019-04-06T06:19:28.919Z,100.00
2019-04-06T06:21:58.266Z,100.00
2019-04-06T06:24:27.600Z,100.00
2019-04-06T06:26:56.948Z,100.00
2019-04-06T06:29:26.285Z,100.00
2019-04-06T06:31:55.632Z,100.00
2019-04-06T06:34:24.994Z,100.00
2019-04-06T06:37:06.740Z,100.00
2019-04-06T06:39:36.040Z,100.00
2019-04-06T06:42:05.366Z,100.00
2019-04-06T06:44:34.709Z,100.00
2019-04-06T06:47:04.064Z,100.00
2019-04-06T06:49:33.604Z,100.00
2019-04-06T06:52:02.946Z,100.00
2019-04-06T06:54:32.284Z,100.00
2019-04-06T06:57:01.696Z,100.00
2019-04-06T06:59:31.042Z,100.00
2019-04-06T07:02:00.391Z,100.00
2019-04-06T07:04:30.104Z,100.00
2019-04-06T07:06:59.362Z,100.00
2019-04-06T07:09:28.698Z,100.00
2019-04-06T07:11:58.254Z,100.00
2019-04-06T07:14:37.422Z,100.00
2019-04-06T07:17:06.804Z,100.00
2019-04-06T07:19:36.109Z,100.00
2019-04-06T07:22:05.490Z,100.00
2019-04-06T07:24:34.786Z,100.00
2019-04-06T07:27:04.090Z,100.00
2019-04-06T07:29:33.503Z,100.00
2019-04-06T07:32:02.853Z,100.00
2019-04-06T07:34:32.099Z,100.00
2019-04-06T07:37:01.492Z,100.00
2019-04-06T07:39:30.815Z,100.00
2019-04-06T07:42:00.237Z,100.00
2019-04-06T07:44:30.222Z,100.00
2019-04-06T07:47:06.653Z,100.00
2019-04-06T07:49:36.081Z,100.00
2019-04-06T07:52:05.732Z,100.00
2019-04-06T07:54:42.494Z,100.00
2019-04-06T07:57:18.926Z,100.00
2019-04-06T07:59:48.268Z,100.00
2019-04-06T08:02:17.619Z,100.00
2019-04-06T08:04:46.946Z,99.52
2019-04-06T08:07:28.195Z,100.00
2019-04-06T08:09:57.529Z,99.26
2019-04-06T08:12:26.983Z,97.74
2019-04-06T08:14:57.537Z,98.44
2019-04-06T08:17:36.859Z,96.12
2019-04-06T08:23:40.245Z,93.92
2019-04-06T08:26:09.710Z,94.90
2019-04-06T08:28:39.469Z,93.96
2019-04-06T08:31:09.046Z,94.13
2019-04-06T08:33:38.773Z,98.67
2019-04-06T08:36:08.408Z,98.60
2019-04-06T08:38:37.859Z,94.30
2019-04-06T08:41:07.198Z,91.46
2019-04-06T08:43:36.607Z,92.33
2019-04-06T08:46:05.941Z,93.73
2019-04-06T08:48:35.279Z,93.86
2019-04-06T08:51:04.812Z,89.90
2019-04-06T08:53:34.301Z,90.10
2019-04-06T08:56:24.222Z,92.23
2019-04-06T08:58:53.569Z,93.52
2019-04-06T09:01:42.293Z,89.93
2019-04-06T09:04:12.001Z,87.03
2019-04-06T09:06:41.768Z,91.05
2019-04-06T09:09:22.093Z,86.86
2019-04-06T09:11:51.429Z,85.90
2019-04-06T09:14:20.881Z,87.71
2019-04-06T09:16:50.700Z,90.32
2019-04-06T09:19:20.044Z,86.26
2019-04-06T09:21:49.483Z,83.12
2019-04-06T09:24:19.218Z,83.67
2019-04-06T09:26:48.924Z,82.25
2019-04-06T09:29:23.893Z,80.77
2019-04-06T09:31:54.953Z,82.97
2019-04-06T09:34:24.281Z,80.48
2019-04-06T09:37:06.176Z,78.83
2019-04-06T09:39:35.453Z,82.04
2019-04-06T09:48:45.937Z,83.78
2019-04-06T09:51:34.337Z,83.78
2019-04-06T09:54:42.264Z,82.24
2019-04-06T09:57:30.781Z,82.24
2019-04-06T10:00:31.176Z,81.79
2019-04-06T10:03:14.716Z,80.20
2019-04-06T10:06:03.498Z,80.20
2019-04-06T10:09:11.330Z,78.36
2019-04-06T10:11:59.787Z,78.36
2019-04-06T10:17:57.332Z,76.33
2019-04-06T10:20:45.782Z,81.95
2019-04-06T10:23:34.241Z,77.62
2019-04-06T10:26:42.265Z,80.56
2019-04-06T10:29:48.877Z,74.24
2019-04-06T10:35:21.092Z,77.49
2019-04-06T10:43:45.264Z,76.53
2019-04-06T10:46:53.050Z,77.40
2019-04-06T10:49:53.753Z,75.07
2019-04-06T10:52:42.203Z,75.07
2019-04-06T10:55:30.659Z,73.96
2019-04-06T11:01:34.617Z,73.61
2019-04-06T11:04:17.376Z,76.87
2019-04-06T11:07:02.763Z,78.52
2019-04-06T11:09:51.704Z,78.52
2019-04-06T11:12:40.078Z,78.19
2019-04-06T11:15:28.763Z,75.39
2019-04-06T11:18:17.216Z,75.39
2019-04-06T11:21:25.416Z,74.55
2019-04-06T11:24:11.896Z,72.14
2019-04-06T11:26:57.974Z,73.67
2019-04-06T11:29:46.593Z,73.67
2019-04-06T11:32:54.332Z,73.77
2019-04-06T11:38:41.767Z,73.77
2019-04-06T11:41:30.314Z,73.77
2019-04-06T11:44:31.115Z,74.28
2019-04-06T11:47:19.710Z,74.28
2019-04-06T11:50:08.241Z,69.60
2019-04-06T11:52:56.612Z,72.21
2019-04-06T11:56:04.568Z,72.53
2019-04-06T11:58:53.010Z,72.53
2019-04-06T12:01:41.715Z,72.03
2019-04-06T12:04:30.401Z,70.47
2019-04-06T12:07:18.860Z,68.31
2019-04-06T12:10:07.316Z,70.38
2019-04-06T12:12:50.942Z,68.11
2019-04-06T12:15:34.621Z,69.28
2019-04-06T12:27:25.810Z,70.04
2019-04-06T12:30:14.282Z,70.04
2019-04-06T12:33:02.771Z,70.59
2019-04-06T12:35:51.258Z,70.59
2019-04-06T12:41:19.351Z,70.57
2019-04-06T12:50:02.878Z,69.97
2019-04-06T12:55:47.425Z,69.48
2019-04-06T12:58:35.898Z,69.38
2019-04-06T13:04:04.676Z,68.28
2019-04-06T13:06:53.040Z,67.14
2019-04-06T13:09:41.500Z,67.58
2019-04-06T13:15:11.992Z,69.29
2019-04-06T13:18:00.464Z,66.81
2019-04-06T13:20:48.975Z,69.56
2019-04-06T13:26:33.373Z,65.01
2019-04-06T13:29:21.824Z,65.49
2019-04-06T13:32:10.453Z,63.49
2019-04-06T13:34:59.164Z,63.75
2019-04-06T13:40:27.467Z,63.16
2019-04-06T13:43:16.203Z,61.95
2019-04-06T13:46:04.712Z,64.29
2019-04-06T13:52:02.201Z,66.79
2019-04-06T13:54:50.752Z,65.71
2019-04-06T13:57:39.183Z,66.93
2019-04-06T14:00:27.931Z,66.66
2019-04-06T14:03:16.312Z,65.97
2019-04-06T14:06:04.793Z,64.41
2019-04-06T14:11:33.435Z,65.26
2019-04-06T14:14:21.880Z,68.08
2019-04-06T14:17:10.336Z,68.25
2019-04-06T14:19:58.785Z,68.49
2019-04-06T14:22:49.006Z,67.56
2019-04-06T14:25:56.790Z,68.49
2019-04-06T14:28:45.705Z,66.16
2019-04-06T14:31:34.290Z,67.65
2019-04-06T14:34:23.035Z,66.99
2019-04-06T14:45:30.006Z,62.81
2019-04-06T14:48:18.496Z,63.47
2019-04-06T14:51:07.347Z,62.54
2019-04-06T14:56:51.365Z,62.69
2019-04-06T14:59:39.901Z,62.31
2019-04-06T15:05:09.447Z,63.78
2019-04-06T15:07:57.903Z,60.58
2019-04-06T15:10:46.592Z,60.25
2019-04-06T15:13:35.373Z,60.60
2019-04-06T15:19:19.412Z,59.83
2019-04-06T15:27:44.054Z,60.82
2019-04-06T15:33:12.521Z,61.23
2019-04-06T15:36:01.721Z,62.39
2019-04-06T15:38:50.192Z,60.99
2019-04-06T15:41:38.845Z,62.47
2019-04-06T15:44:27.570Z,63.46
2019-04-06T15:47:15.983Z,63.05
2019-04-06T15:50:04.782Z,62.17
2019-04-06T15:52:53.229Z,62.82
2019-04-06T15:55:41.726Z,63.06
2019-04-06T15:58:30.582Z,63.90
2019-04-06T16:01:19.341Z,63.52
2019-04-06T16:04:07.761Z,65.12
2019-04-06T16:06:56.331Z,64.30
2019-04-06T16:10:04.625Z,65.21
2019-04-06T16:12:53.077Z,65.21
2019-04-06T16:18:37.548Z,66.25
2019-04-06T16:21:25.997Z,67.35
2019-04-06T16:24:14.599Z,67.28
2019-04-06T16:32:39.202Z,64.87
2019-04-06T16:35:27.896Z,64.58
2019-04-06T16:38:17.005Z,65.58
2019-04-06T16:41:05.448Z,66.14
2019-04-06T16:43:54.086Z,66.18
2019-04-06T16:46:42.580Z,67.35
2019-04-06T16:49:31.380Z,66.81
2019-04-06T16:52:20.253Z,65.59
2019-04-06T16:55:09.116Z,68.81
2019-04-06T16:57:57.566Z,67.15
2019-04-06T17:03:41.484Z,70.66
2019-04-06T17:06:30.394Z,70.00
2019-04-06T17:09:18.864Z,70.04
2019-04-06T17:12:07.545Z,70.58
2019-04-06T17:14:56.244Z,72.87
2019-04-06T17:20:40.561Z,73.74
2019-04-06T17:26:38.115Z,73.37
2019-04-06T17:29:26.632Z,80.14
2019-04-06T17:32:12.436Z,79.46
2019-04-06T17:35:01.370Z,84.12
2019-04-06T17:37:49.948Z,84.12
2019-04-06T17:40:38.455Z,83.50
2019-04-06T17:43:27.014Z,80.47
2019-04-06T17:49:56.416Z,86.74
2019-04-06T17:55:41.429Z,89.54
2019-04-06T17:58:42.394Z,93.89
2019-04-06T18:01:27.828Z,93.48
2019-04-06T18:04:10.672Z,94.14
2019-04-06T18:06:59.153Z,94.14
2019-04-06T18:12:39.765Z,94.31
2019-04-06T18:15:21.612Z,96.56
2019-04-06T18:17:50.982Z,96.56
2019-04-06T18:20:20.347Z,95.93
2019-04-06T18:22:50.182Z,94.12
2019-04-06T18:25:46.151Z,90.22
2019-04-06T18:28:34.968Z,89.66
2019-04-06T18:31:41.520Z,89.23
2019-04-06T18:34:11.293Z,89.23
2019-04-06T18:37:26.024Z,92.63
2019-04-06T18:42:51.906Z,94.46
2019-04-06T18:48:23.640Z,95.14
2019-04-06T18:51:00.248Z,93.64
2019-04-06T18:53:29.853Z,95.10
2019-04-06T18:55:59.281Z,94.13
2019-04-06T18:58:28.803Z,94.57
2019-04-06T19:00:58.507Z,94.21
2019-04-06T19:03:47.330Z,94.21
2019-04-06T19:06:16.746Z,96.40
2019-04-06T19:08:46.178Z,97.33
2019-04-06T19:11:15.647Z,95.81
2019-04-06T19:13:45.533Z,97.00
2019-04-06T19:16:35.514Z,96.06
2019-04-06T19:22:38.788Z,96.65
2019-04-06T19:25:53.410Z,98.22
2019-04-06T19:28:23.140Z,98.77
2019-04-06T19:31:13.506Z,100.00
2019-04-06T19:33:54.143Z,99.37
2019-04-06T19:36:23.769Z,99.62
2019-04-06T19:38:53.241Z,99.25
2019-04-06T19:41:22.986Z,100.00
2019-04-06T19:43:58.281Z,99.97
2019-04-06T19:46:34.345Z,98.25
2019-04-06T19:49:03.878Z,99.59
2019-04-06T19:51:33.415Z,100.00
2019-04-06T19:54:09.022Z,100.00
2019-04-06T19:56:38.630Z,99.16
2019-04-06T19:59:27.733Z,100.00
2019-04-06T20:01:57.523Z,100.00
2019-04-06T20:04:47.530Z,100.00
2019-04-06T20:07:16.995Z,100.00
2019-04-06T20:09:46.534Z,100.00
2019-04-06T20:12:16.023Z,100.00
2019-04-06T20:14:45.616Z,100.00
2019-04-06T20:17:15.146Z,100.00
2019-04-06T20:19:45.430Z,100.00
2019-04-06T20:22:35.299Z,100.00
2019-04-06T20:28:38.956Z,100.00
2019-04-06T20:31:15.199Z,100.00
2019-04-06T20:33:50.154Z,100.00
2019-04-06T20:36:35.216Z,100.00
2019-04-06T20:39:11.369Z,100.00
2019-04-06T20:41:40.726Z,100.00
2019-04-06T20:44:10.057Z,100.00
2019-04-06T20:46:39.826Z,100.00
2019-04-06T20:49:15.873Z,100.00
2019-04-06T20:51:45.521Z,100.00
2019-04-06T20:54:26.190Z,100.00
2019-04-06T20:57:01.923Z,100.00
2019-04-06T20:59:31.631Z,100.00
2019-04-06T21:02:21.851Z,100.00
2019-04-06T21:04:51.279Z,100.00
2019-04-06T21:10:43.210Z,100.00
2019-04-06T21:13:12.694Z,100.00
2019-04-06T21:15:43.461Z,100.00
2019-04-06T21:18:19.069Z,100.00
2019-04-06T21:20:48.412Z,100.00
2019-04-06T21:23:18.139Z,100.00
2019-04-06T21:25:54.977Z,100.00
2019-04-06T21:28:31.129Z,100.00
2019-04-06T21:31:00.447Z,100.00
2019-04-06T21:33:29.816Z,100.00
2019-04-06T21:35:59.265Z,100.00
2019-04-06T21:38:28.587Z,100.00
2019-04-06T21:40:58.240Z,100.00
2019-04-06T21:43:34.440Z,100.00
2019-04-06T21:46:03.957Z,100.00
2019-04-06T21:48:33.461Z,100.00
2019-04-06T21:51:03.143Z,100.00
2019-04-06T21:53:32.776Z,100.00
2019-04-06T21:56:07.025Z,100.00
2019-04-06T21:58:39.242Z,100.00
2019-04-06T22:01:55.798Z,100.00
2019-04-06T22:04:26.712Z,100.00
2019-04-06T22:07:27.744Z,100.00
2019-04-06T22:09:57.084Z,100.00
2019-04-06T22:12:26.330Z,100.00
2019-04-06T22:14:55.673Z,100.00
2019-04-06T22:17:25.231Z,100.00
2019-04-06T22:20:14.021Z,100.00
2019-04-06T22:23:14.086Z,100.00
2019-04-06T22:25:50.581Z,100.00
2019-04-06T22:28:19.900Z,100.00
2019-04-06T22:30:49.681Z,100.00
2019-04-06T22:33:25.517Z,100.00
2019-04-06T22:35:55.067Z,100.00
2019-04-06T22:38:44.998Z,100.00
2019-04-06T22:41:14.367Z,100.00
2019-04-06T22:43:44.572Z,100.00
2019-04-06T22:46:20.282Z,100.00
2019-04-06T22:48:49.574Z,100.00
2019-04-06T22:51:18.857Z,100.00
2019-04-06T22:53:49.179Z,100.00
2019-04-06T22:56:38.449Z,100.00
2019-04-06T22:59:07.675Z,100.00
2019-04-06T23:01:56.096Z,100.00
2019-04-06T23:10:01.105Z,100.00
2019-04-06T23:12:51.087Z,100.00
2019-04-06T23:15:20.999Z,100.00
2019-04-06T23:17:56.792Z,100.00
2019-04-06T23:20:26.691Z,100.00
2019-04-06T23:23:02.299Z,100.00
2019-04-06T23:25:32.292Z,100.00
2019-04-06T23:28:21.776Z,100.00
2019-04-06T23:30:52.801Z,100.00
2019-04-06T23:33:22.771Z,100.00
2019-04-06T23:36:03.291Z,100.00
2019-04-06T23:38:39.534Z,100.00
2019-04-06T23:41:16.227Z,100.00
2019-04-06T23:43:52.292Z,100.00
2019-04-06T23:46:21.552Z,100.00
2019-04-06T23:48:50.883Z,100.00
2019-04-06T23:51:21.022Z,100.00
2019-04-06T23:54:10.575Z,100.00
2019-04-06T23:56:47.557Z,100.00
2019-04-06T23:59:49.927Z,100.00
